createdAt,value
2022-08-21T00:02:23.120Z,17.40
2022-08-21T00:04:57.725Z,19.60
2022-08-21T00:07:26.958Z,18.23
2022-08-21T00:09:56.937Z,20.48
2022-08-21T00:14:54.792Z,17.05
2022-08-21T00:17:28.168Z,17.77
2022-08-21T00:19:56.099Z,16.65
2022-08-21T00:22:24.103Z,15.02
2022-08-21T00:24:53.876Z,15.75
2022-08-21T00:27:21.906Z,17.40
2022-08-21T00:29:50.022Z,16.95
2022-08-21T00:32:26.430Z,16.30
2022-08-21T00:34:54.994Z,16.45
2022-08-21T00:37:23.060Z,15.88
2022-08-21T00:39:52.714Z,14.68
2022-08-21T00:42:22.089Z,16.02
2022-08-21T00:44:52.049Z,14.75
2022-08-21T00:49:49.355Z,13.45
2022-08-21T00:52:25.689Z,14.38
2022-08-21T00:54:56.776Z,14.25
2022-08-21T00:57:32.779Z,13.63
2022-08-21T01:00:06.402Z,12.88
2022-08-21T01:02:36.044Z,13.93
2022-08-21T01:05:05.354Z,14.85
2022-08-21T01:07:35.957Z,13.35
2022-08-21T01:10:06.553Z,12.57
2022-08-21T01:12:36.154Z,14.75
2022-08-21T01:15:06.421Z,13.40
2022-08-21T01:17:35.093Z,13.00
2022-08-21T01:20:08.643Z,12.85
2022-08-21T01:22:37.404Z,11.65
2022-08-21T01:25:07.831Z,12.98
2022-08-21T01:27:35.934Z,11.30
2022-08-21T01:30:13.540Z,12.48
2022-08-21T01:32:41.742Z,12.15
2022-08-21T01:35:11.396Z,10.98
2022-08-21T01:37:40.688Z,11.85
2022-08-21T01:40:10.888Z,10.65
2022-08-21T01:42:40.665Z,10.88
2022-08-21T01:45:11.517Z,10.00
2022-08-21T01:47:40.505Z,10.35
2022-08-21T01:50:12.000Z,11.23
2022-08-21T01:52:41.393Z,9.15
2022-08-21T01:55:10.956Z,8.18
2022-08-21T01:57:41.969Z,8.75
2022-08-21T02:00:14.023Z,8.43
2022-08-21T02:02:42.992Z,7.60
2022-08-21T02:05:13.542Z,8.18
2022-08-21T02:07:49.296Z,7.88
2022-08-21T02:10:24.371Z,7.90
2022-08-21T02:12:55.309Z,7.65
2022-08-21T02:15:23.734Z,7.22
2022-08-21T02:17:59.085Z,7.22
2022-08-21T02:20:34.407Z,7.03
2022-08-21T02:23:02.705Z,8.68
2022-08-21T02:25:32.154Z,7.60
2022-08-21T02:28:01.960Z,7.45
2022-08-21T02:30:33.299Z,7.03
2022-08-21T02:33:01.570Z,7.10
2022-08-21T02:35:30.337Z,7.70
2022-08-21T02:38:06.153Z,7.32
2022-08-21T02:40:38.125Z,6.80
2022-08-21T02:43:13.298Z,6.93
2022-08-21T02:45:42.166Z,7.18
2022-08-21T02:48:13.606Z,7.28
2022-08-21T02:50:49.318Z,6.78
2022-08-21T02:53:18.114Z,7.13
2022-08-21T02:55:48.841Z,6.57
2022-08-21T02:58:22.855Z,6.53
2022-08-21T03:00:51.430Z,6.50
2022-08-21T03:03:22.671Z,7.82
2022-08-21T03:05:51.714Z,7.18
2022-08-21T03:08:20.512Z,6.53
2022-08-21T03:10:53.256Z,7.00
2022-08-21T03:13:24.575Z,5.97
2022-08-21T03:15:53.004Z,6.53
2022-08-21T03:18:21.834Z,6.88
2022-08-21T03:20:50.504Z,6.25
2022-08-21T03:23:19.741Z,6.35
2022-08-21T03:25:50.113Z,6.30
2022-08-21T03:28:24.099Z,7.60
2022-08-21T03:30:53.899Z,7.03
2022-08-21T03:33:23.291Z,6.65
2022-08-21T03:36:04.962Z,6.70
2022-08-21T03:38:35.057Z,6.68
2022-08-21T03:41:04.310Z,7.30
2022-08-21T03:43:36.706Z,6.88
2022-08-21T03:46:06.367Z,7.20
2022-08-21T03:48:36.532Z,6.78
2022-08-21T03:51:06.084Z,7.00
2022-08-21T03:53:34.682Z,6.32
2022-08-21T03:56:02.765Z,6.65
2022-08-21T03:58:31.536Z,6.68
2022-08-21T04:01:01.788Z,6.45
2022-08-21T04:03:31.558Z,6.05
2022-08-21T04:05:59.807Z,6.35
2022-08-21T04:08:27.958Z,6.60
2022-08-21T04:11:01.624Z,6.22
2022-08-21T04:13:30.890Z,6.05
2022-08-21T04:16:02.213Z,7.07
2022-08-21T04:18:30.445Z,5.85
2022-08-21T04:21:01.933Z,5.50
2022-08-21T04:23:30.491Z,5.60
2022-08-21T04:25:59.349Z,5.95
2022-08-21T04:28:31.321Z,5.13
2022-08-21T04:30:59.736Z,5.47
2022-08-21T04:33:27.743Z,5.55
2022-08-21T04:35:56.815Z,5.10
2022-08-21T04:38:24.785Z,5.00
2022-08-21T04:40:53.500Z,5.53
2022-08-21T04:43:24.972Z,5.35
2022-08-21T04:45:53.826Z,5.68
2022-08-21T04:48:23.813Z,5.88
2022-08-21T04:53:46.262Z,5.20
2022-08-21T04:56:23.068Z,5.80
2022-08-21T04:58:53.895Z,5.60
2022-08-21T05:01:25.814Z,5.97
2022-08-21T05:04:01.325Z,5.43
2022-08-21T05:06:32.757Z,5.15
2022-08-21T05:09:02.633Z,5.40
2022-08-21T05:11:34.253Z,5.40
2022-08-21T05:14:02.528Z,5.00
2022-08-21T05:16:37.420Z,4.60
2022-08-21T05:19:08.006Z,4.55
2022-08-21T05:21:38.010Z,4.32
2022-08-21T05:26:36.806Z,4.32
2022-08-21T05:29:16.367Z,3.75
2022-08-21T05:31:45.548Z,4.15
2022-08-21T05:34:17.092Z,4.20
2022-08-21T05:36:46.111Z,5.22
2022-08-21T05:39:15.622Z,4.40
2022-08-21T05:41:43.940Z,4.28
2022-08-21T05:44:11.974Z,4.00
2022-08-21T05:46:41.180Z,4.43
2022-08-21T05:49:09.355Z,4.13
2022-08-21T05:51:37.434Z,5.28
2022-08-21T05:54:05.674Z,3.95
2022-08-21T05:56:34.449Z,3.75
2022-08-21T05:59:02.476Z,3.75
2022-08-21T06:01:37.884Z,3.17
2022-08-21T06:04:06.460Z,3.60
2022-08-21T06:06:35.256Z,2.90
2022-08-21T06:09:05.044Z,2.97
2022-08-21T06:14:02.249Z,3.08
2022-08-21T06:16:32.624Z,2.70
2022-08-21T06:19:03.040Z,2.88
2022-08-21T06:21:31.307Z,2.45
2022-08-21T06:24:01.087Z,2.75
2022-08-21T06:26:29.751Z,3.15
2022-08-21T06:28:57.783Z,2.90
2022-08-21T06:31:28.497Z,2.95
2022-08-21T06:33:56.776Z,2.50
2022-08-21T06:36:25.104Z,2.30
2022-08-21T06:38:57.129Z,2.17
2022-08-21T06:41:26.533Z,2.22
2022-08-21T06:43:57.173Z,2.55
2022-08-21T06:48:57.218Z,2.53
2022-08-21T06:51:27.367Z,2.50
2022-08-21T06:53:55.951Z,2.63
2022-08-21T06:56:24.146Z,2.10
2022-08-21T06:58:52.121Z,2.25
2022-08-21T07:01:25.647Z,2.42
2022-08-21T07:03:54.754Z,2.10
2022-08-21T07:06:22.723Z,2.00
2022-08-21T07:08:52.134Z,1.83
2022-08-21T07:11:23.859Z,1.80
2022-08-21T07:13:54.618Z,1.80
2022-08-21T07:16:23.544Z,1.50
2022-08-21T07:18:53.509Z,1.45
2022-08-21T07:21:25.597Z,1.90
2022-08-21T07:23:55.412Z,1.58
2022-08-21T07:26:25.677Z,1.50
2022-08-21T07:28:55.054Z,1.50
2022-08-21T07:31:26.227Z,1.58
2022-08-21T07:33:55.365Z,1.30
2022-08-21T07:36:23.344Z,1.30
2022-08-21T07:38:52.662Z,1.30
2022-08-21T10:50:43.853Z,2.22
2022-08-21T10:53:38.682Z,1.92
2022-08-21T10:56:19.574Z,2.25
2022-08-21T10:59:13.615Z,2.53
2022-08-21T11:01:53.801Z,2.03
2022-08-21T11:04:32.129Z,1.35
2022-08-21T11:07:42.183Z,1.42
2022-08-21T11:10:36.054Z,1.50
2022-08-21T11:13:45.008Z,2.95
2022-08-21T11:16:34.600Z,2.78
2022-08-21T11:19:17.182Z,5.60
2022-08-21T11:21:50.789Z,5.22
2022-08-21T11:24:33.054Z,4.38
2022-08-21T11:27:03.596Z,3.28
2022-08-21T11:29:36.908Z,2.72
2022-08-21T11:32:06.068Z,3.00
2022-08-21T11:34:59.891Z,2.80
2022-08-21T11:37:57.714Z,2.67
2022-08-21T11:41:04.259Z,2.90
2022-08-21T11:43:46.161Z,8.80
2022-08-21T11:46:18.851Z,10.48
2022-08-21T11:49:02.248Z,9.95
2022-08-21T11:51:55.470Z,8.63
2022-08-21T11:54:28.116Z,14.32
2022-08-21T11:57:37.134Z,36.83
2022-08-21T12:00:17.799Z,18.73
2022-08-21T12:02:53.021Z,16.50
2022-08-21T12:05:38.084Z,8.32
2022-08-21T12:08:14.758Z,5.47
2022-08-21T12:10:50.519Z,2.55
2022-08-21T12:13:40.678Z,2.13
2022-08-21T12:16:17.093Z,2.30
2022-08-21T12:18:45.681Z,3.83
2022-08-21T12:21:28.226Z,3.70
2022-08-21T12:24:27.856Z,2.55
2022-08-21T12:26:57.672Z,4.45
2022-08-21T12:29:31.106Z,4.40
2022-08-21T12:32:10.910Z,4.93
2022-08-21T12:34:41.282Z,4.30
2022-08-21T12:37:23.851Z,5.78
2022-08-21T12:39:56.469Z,3.35
2022-08-21T12:42:41.757Z,3.25
2022-08-21T12:45:21.020Z,4.80
2022-08-21T12:48:04.766Z,4.40
2022-08-21T12:51:09.802Z,4.90
2022-08-21T12:53:51.948Z,3.55
2022-08-21T12:56:23.967Z,4.05
2022-08-21T12:59:18.079Z,3.85
2022-08-21T13:01:51.254Z,4.40
2022-08-21T13:04:24.135Z,4.43
2022-08-21T13:06:56.206Z,4.45
2022-08-21T13:09:30.322Z,5.13
2022-08-21T13:12:00.967Z,5.07
2022-08-21T13:14:47.533Z,4.72
2022-08-21T13:17:23.231Z,5.05
2022-08-21T13:20:05.618Z,5.20
2022-08-21T13:22:35.423Z,5.30
2022-08-21T13:27:36.104Z,4.95
2022-08-21T13:30:07.153Z,5.18
2022-08-21T13:32:39.382Z,4.55
2022-08-21T13:35:22.027Z,5.28
2022-08-21T13:37:53.491Z,5.53
2022-08-21T13:40:33.271Z,5.50
2022-08-21T13:43:02.811Z,4.80
2022-08-21T13:45:35.017Z,5.10
2022-08-21T13:48:06.092Z,5.20
2022-08-21T13:50:38.989Z,5.78
2022-08-21T13:53:21.903Z,5.65
2022-08-21T13:55:51.321Z,6.43
2022-08-21T13:58:36.116Z,6.03
2022-08-21T14:01:04.990Z,5.68
2022-08-21T14:03:47.553Z,5.80
2022-08-21T14:06:22.343Z,5.53
2022-08-21T14:08:55.331Z,6.03
2022-08-21T14:11:24.300Z,6.60
2022-08-21T14:14:04.013Z,5.93
2022-08-21T14:16:46.495Z,6.65
2022-08-21T14:19:38.965Z,5.57
2022-08-21T14:22:30.952Z,7.30
2022-08-21T14:25:22.541Z,7.00
2022-08-21T14:28:00.725Z,5.72
2022-08-21T14:30:35.747Z,6.88
2022-08-21T14:33:07.397Z,5.90
2022-08-21T14:35:35.774Z,6.88
2022-08-21T14:38:04.525Z,8.30
2022-08-21T14:40:32.561Z,7.28
2022-08-21T14:43:00.704Z,7.72
2022-08-21T14:45:35.589Z,10.25
2022-08-21T14:48:03.849Z,10.88
2022-08-21T14:50:32.824Z,7.60
2022-08-21T14:53:02.167Z,8.48
2022-08-21T14:55:30.203Z,10.15
2022-08-21T14:57:59.298Z,13.23
2022-08-21T15:00:35.932Z,16.02
2022-08-21T15:03:04.682Z,18.42
2022-08-21T15:05:34.274Z,17.27
2022-08-21T15:08:03.011Z,17.92
2022-08-21T15:10:32.436Z,17.27
2022-08-21T15:13:01.031Z,24.48
2022-08-21T15:15:37.791Z,107.70
2022-08-21T15:18:05.877Z,142.23
2022-08-21T15:20:34.245Z,95.63
2022-08-21T15:23:02.430Z,52.75
2022-08-21T15:25:30.582Z,35.00
2022-08-21T15:28:02.181Z,23.10
2022-08-21T15:30:31.892Z,25.30
2022-08-21T15:33:00.078Z,23.27
2022-08-21T15:35:29.153Z,26.67
2022-08-21T15:37:57.183Z,28.13
2022-08-21T15:40:26.260Z,28.90
2022-08-21T15:43:00.161Z,30.98
2022-08-21T15:45:28.812Z,25.55
2022-08-21T15:47:57.744Z,24.48
2022-08-21T15:50:28.026Z,24.60
2022-08-21T15:52:56.032Z,25.23
2022-08-21T15:55:24.249Z,21.80
2022-08-21T15:57:56.850Z,17.88
2022-08-21T16:00:27.201Z,12.80
2022-08-21T16:02:57.882Z,11.65
2022-08-21T16:05:26.302Z,12.57
2022-08-21T16:07:54.710Z,10.38
2022-08-21T16:10:28.440Z,9.73
2022-08-21T16:13:05.889Z,10.23
2022-08-21T16:15:34.116Z,9.52
2022-08-21T16:18:02.500Z,9.65
2022-08-21T16:20:32.921Z,10.18
2022-08-21T16:23:01.126Z,12.05
2022-08-21T16:25:29.719Z,11.70
2022-08-21T16:28:02.415Z,13.32
2022-08-21T16:30:31.627Z,13.23
2022-08-21T16:33:03.064Z,13.45
2022-08-21T16:35:32.984Z,13.43
2022-08-21T16:38:01.887Z,13.02
2022-08-21T16:40:30.379Z,13.25
2022-08-21T16:43:00.224Z,11.68
2022-08-21T16:48:05.043Z,13.32
2022-08-21T16:50:33.294Z,13.40
2022-08-21T16:53:01.284Z,12.20
2022-08-21T16:55:29.774Z,11.75
2022-08-21T16:57:58.166Z,11.07
2022-08-21T17:00:26.155Z,12.95
2022-08-21T17:02:56.880Z,12.43
2022-08-21T17:05:25.150Z,12.65
2022-08-21T17:07:53.174Z,12.18
2022-08-21T17:10:22.158Z,10.52
2022-08-21T17:12:56.656Z,11.30
2022-08-21T17:15:37.545Z,11.43
2022-08-21T17:18:10.806Z,11.32
2022-08-21T17:20:40.902Z,11.45
2022-08-21T17:23:09.691Z,11.90
2022-08-21T17:25:44.866Z,12.27
2022-08-21T17:28:19.880Z,13.10
2022-08-21T17:30:47.940Z,13.63
2022-08-21T17:33:20.877Z,15.82
2022-08-21T17:35:49.487Z,18.60
2022-08-21T17:38:17.475Z,18.65
2022-08-21T17:40:49.537Z,18.58
2022-08-21T17:43:17.595Z,17.15
2022-08-21T17:45:46.531Z,18.80
2022-08-21T17:48:15.033Z,17.33
2022-08-21T17:50:43.281Z,17.58
2022-08-21T17:53:11.409Z,17.35
2022-08-21T17:55:39.517Z,17.88
2022-08-21T17:58:11.144Z,17.73
2022-08-21T18:00:40.557Z,18.42
2022-08-21T18:03:17.244Z,17.63
2022-08-21T18:05:47.774Z,19.38
2022-08-21T18:08:16.032Z,18.95
2022-08-21T18:10:48.711Z,17.90
2022-08-21T18:13:22.885Z,17.45
2022-08-21T18:15:53.451Z,16.77
2022-08-21T18:18:22.469Z,17.38
2022-08-21T18:20:51.950Z,16.45
2022-08-21T18:23:21.209Z,17.73
2022-08-21T18:26:09.631Z,18.95
2022-08-21T18:28:39.226Z,16.90
2022-08-21T18:31:10.486Z,14.07
2022-08-21T18:33:57.042Z,16.58
2022-08-21T18:36:30.674Z,16.55
2022-08-21T18:39:19.385Z,14.38
2022-08-21T18:41:49.025Z,14.38
2022-08-21T18:44:18.971Z,13.80
2022-08-21T18:49:18.794Z,14.80
2022-08-21T18:51:47.712Z,13.57
2022-08-21T18:54:16.501Z,13.68
2022-08-21T18:56:46.157Z,12.98
2022-08-21T18:59:16.055Z,12.48
2022-08-21T19:04:41.083Z,12.52
2022-08-21T19:07:05.308Z,11.45
2022-08-21T19:09:33.489Z,12.10
2022-08-21T19:12:03.930Z,12.43
2022-08-21T19:14:32.438Z,12.48
2022-08-21T19:17:00.871Z,13.65
2022-08-21T19:19:28.994Z,13.50
2022-08-21T19:21:59.949Z,13.48
2022-08-21T19:24:28.905Z,12.95
2022-08-21T19:26:56.929Z,13.73
2022-08-21T19:29:34.674Z,12.27
2022-08-21T19:32:09.460Z,13.35
2022-08-21T19:34:40.058Z,13.35
2022-08-21T19:37:12.573Z,13.95
2022-08-21T19:39:46.474Z,7.68
2022-08-21T19:42:22.751Z,4.63
2022-08-21T19:44:57.419Z,4.60
2022-08-21T19:47:29.471Z,4.72
2022-08-21T19:50:01.554Z,4.65
2022-08-21T20:00:20.135Z,4.13
2022-08-21T20:02:48.470Z,3.85
2022-08-21T20:05:18.163Z,4.00
2022-08-21T20:07:46.736Z,3.95
2022-08-21T20:10:15.617Z,3.72
2022-08-21T20:12:51.081Z,4.35
2022-08-21T20:15:24.262Z,3.85
2022-08-21T20:17:52.374Z,3.65
2022-08-21T20:20:21.146Z,3.72
2022-08-21T20:22:50.579Z,4.63
2022-08-21T20:25:21.097Z,4.15
2022-08-21T20:27:49.658Z,3.92
2022-08-21T20:30:22.827Z,3.72
2022-08-21T20:32:51.395Z,3.63
2022-08-21T20:35:20.429Z,3.60
2022-08-21T20:37:58.863Z,4.13
2022-08-21T20:43:17.453Z,3.70
2022-08-21T20:45:47.293Z,4.03
2022-08-21T20:48:26.985Z,3.70
2022-08-21T20:51:22.007Z,4.50
2022-08-21T20:54:15.601Z,3.90
2022-08-21T20:57:13.889Z,4.38
2022-08-21T20:59:49.982Z,3.88
2022-08-21T21:02:45.487Z,3.25
2022-08-21T21:05:18.956Z,4.95
2022-08-21T21:08:11.811Z,3.63
2022-08-21T21:13:45.363Z,3.58
2022-08-21T21:16:22.933Z,5.38
2022-08-21T21:19:07.034Z,4.18
2022-08-21T21:21:53.956Z,4.22
2022-08-21T21:24:37.529Z,4.45
2022-08-21T21:27:18.848Z,4.10
2022-08-21T21:29:52.704Z,4.22
2022-08-21T21:32:22.313Z,4.45
2022-08-21T21:34:50.948Z,4.03
2022-08-21T21:37:32.688Z,3.83
2022-08-21T21:40:33.825Z,4.22
2022-08-21T21:43:34.178Z,4.07
2022-08-21T21:46:19.888Z,3.97
2022-08-21T21:49:18.292Z,4.45
2022-08-21T21:52:11.223Z,4.85
2022-08-21T21:54:46.130Z,4.20
2022-08-21T21:57:30.908Z,4.85
2022-08-21T22:00:14.024Z,4.47
2022-08-21T22:02:56.043Z,5.10
2022-08-21T22:06:04.674Z,5.20
2022-08-21T22:09:05.377Z,4.78
2022-08-21T22:11:55.384Z,4.80
2022-08-21T22:14:46.750Z,4.60
2022-08-21T22:17:47.578Z,4.75
2022-08-21T22:20:30.196Z,5.47
2022-08-21T22:23:05.133Z,4.93
2022-08-21T22:25:44.391Z,5.30
2022-08-21T22:28:25.755Z,5.07
2022-08-21T22:30:56.723Z,6.47
2022-08-21T22:33:28.794Z,7.47
2022-08-21T22:35:59.638Z,6.75
2022-08-21T22:38:27.584Z,6.82
2022-08-21T22:41:17.772Z,6.25
2022-08-21T22:44:01.695Z,7.13
2022-08-21T22:47:07.085Z,6.25
2022-08-21T22:49:47.324Z,6.68
2022-08-21T22:52:30.120Z,7.35
2022-08-21T22:55:04.236Z,6.32
2022-08-21T22:57:37.174Z,6.10
2022-08-21T23:00:11.786Z,6.72
2022-08-21T23:02:46.164Z,6.07
2022-08-21T23:05:25.884Z,6.18
2022-08-21T23:07:56.428Z,6.95
2022-08-21T23:10:41.049Z,7.20
2022-08-21T23:13:19.030Z,7.22
2022-08-21T23:16:05.897Z,7.07
2022-08-21T23:18:45.188Z,7.40
2022-08-21T23:21:19.120Z,7.25
2022-08-21T23:24:27.890Z,7.70
2022-08-21T23:27:10.412Z,6.82
2022-08-21T23:29:51.924Z,6.95
2022-08-21T23:32:56.973Z,8.52
2022-08-21T23:36:08.164Z,8.40
2022-08-21T23:39:11.427Z,8.63
2022-08-21T23:41:45.758Z,8.98
2022-08-21T23:44:25.528Z,9.10
2022-08-21T23:47:23.365Z,7.93
2022-08-21T23:50:14.103Z,8.80
2022-08-21T23:53:08.970Z,8.80
2022-08-21T23:55:55.393Z,8.63
2022-08-21T23:58:43.599Z,9.55
